Time;durP1;ratioP1;P1;durP2;ratioP2;P2;SDS_P1;SDS_P2;PMS_P1;PMS_P2;Temp;Humidity;BMP_temperature;BMP_pressure;BME280_temperature;BME280_humidity;BME280_pressure;Samples;Min_cycle;Max_cycle;Signal;HPM_P1;HPM_P2
2023/08/06 00:02:14;;;;;;;37.10;33.20;;;;;;;18.79;100.00;97546.17;109645;1251;58214;-80
2023/08/06 00:04:40;;;;;;;34.30;30.70;;;;;;;18.77;100.00;97538.95;109608;1250;64032;-80
2023/08/06 00:07:07;;;;;;;33.80;30.20;;;;;;;18.77;100.00;97542.63;109648;1251;60089;-80
2023/08/06 00:09:33;;;;;;;35.20;31.30;;;;;;;18.76;100.00;97526.68;109623;1251;62901;-81
2023/08/06 00:12:00;;;;;;;37.00;30.80;;;;;;;18.76;100.00;97502.98;109575;1251;58476;-81
2023/08/06 00:14:26;;;;;;;34.10;30.40;;;;;;;18.75;100.00;97506.72;109621;1251;58294;-81
2023/08/06 00:16:53;;;;;;;33.20;29.70;;;;;;;18.73;100.00;97486.76;109622;1251;65249;-80
2023/08/06 00:19:19;;;;;;;33.30;29.90;;;;;;;18.71;100.00;97468.41;109628;1251;58790;-80
2023/08/06 00:21:46;;;;;;;34.20;28.80;;;;;;;18.71;100.00;97452.44;109612;1251;64302;-82
2023/08/06 00:24:12;;;;;;;34.50;28.70;;;;;;;18.70;100.00;97410.84;109585;1251;58135;-81
2023/08/06 00:26:39;;;;;;;33.80;29.50;;;;;;;18.68;100.00;97388.39;109660;1251;58606;-80
2023/08/06 00:29:06;;;;;;;33.00;27.60;;;;;;;18.68;100.00;97474.62;109616;1251;65160;-80
2023/08/06 00:31:33;;;;;;;32.40;28.60;;;;;;;18.68;100.00;97512.23;109615;1251;60172;-80
2023/08/06 00:33:59;;;;;;;31.20;28.00;;;;;;;18.68;100.00;97503.98;109625;1251;63515;-81
2023/08/06 00:36:26;;;;;;;34.70;30.90;;;;;;;18.68;100.00;97466.90;109607;1251;58439;-80
2023/08/06 00:38:52;;;;;;;34.80;29.50;;;;;;;18.67;100.00;97433.34;109672;1253;58180;-80
2023/08/06 00:41:19;;;;;;;34.30;30.20;;;;;;;18.66;100.00;97416.73;109615;1251;64102;-80
2023/08/06 00:43:45;;;;;;;34.70;31.00;;;;;;;18.66;100.00;97417.97;109509;1251;155526;-81
2023/08/06 00:46:12;;;;;;;34.40;30.20;;;;;;;18.66;100.00;97415.15;109606;1251;62924;-77
2023/08/06 00:48:40;;;;;;;33.50;30.10;;;;;;;18.65;100.00;97423.86;109600;1251;58158;-81
2023/08/06 00:51:10;;;;;;;36.10;32.10;;;;;;;18.65;100.00;97438.06;109569;1251;58202;-80
2023/08/06 00:53:40;;;;;;;35.70;31.90;;;;;;;18.67;100.00;97456.77;109447;1251;66062;-81
2023/08/06 00:56:08;;;;;;;33.60;30.00;;;;;;;18.70;100.00;97470.41;109614;1251;58612;-82
2023/08/06 00:58:36;;;;;;;35.30;30.50;;;;;;;18.72;100.00;97463.13;109646;1251;62862;-81
2023/08/06 01:01:02;;;;;;;35.20;31.60;;;;;;;18.73;100.00;97449.48;109357;1251;58177;-80
2023/08/06 01:03:29;;;;;;;38.50;32.10;;;;;;;18.75;100.00;97453.27;109637;1251;58217;-81
2023/08/06 01:05:56;;;;;;;34.80;30.60;;;;;;;18.77;100.00;97457.88;109604;1250;74862;-81
2023/08/06 01:08:48;;;;;;;34.30;30.60;;;;;;;18.78;100.00;97455.41;109647;1251;59872;-81
2023/08/06 01:11:21;;;;;;;33.00;29.60;;;;;;;18.79;100.00;97440.26;109676;1251;64061;-81
2023/08/06 01:13:58;;;;;;;37.90;28.30;;;;;;;18.80;100.00;97422.17;109612;1251;58302;-81
2023/08/06 01:16:25;;;;;;;33.40;30.00;;;;;;;18.81;100.00;97409.14;109644;1251;58149;-81
2023/08/06 01:18:52;;;;;;;35.20;30.10;;;;;;;18.82;100.00;97398.75;109679;1250;66372;-82
2023/08/06 01:21:19;;;;;;;33.90;30.00;;;;;;;18.82;100.00;97394.44;109683;1251;58912;-82
2023/08/06 01:23:47;;;;;;;31.60;28.30;;;;;;;18.82;100.00;97380.53;109560;1251;64115;-81
2023/08/06 01:26:29;;;;;;;33.10;29.50;;;;;;;18.83;100.00;97371.62;109590;1251;58293;-81
2023/08/06 01:29:24;;;;;;;33.20;29.60;;;;;;;18.83;100.00;97372.16;109540;1251;58327;-81
2023/08/06 01:31:52;;;;;;;31.70;28.30;;;;;;;18.84;100.00;97370.55;109695;1251;64159;-82
2023/08/06 01:34:25;;;;;;;33.10;29.10;;;;;;;18.85;100.00;97367.73;109668;1250;61462;-82
2023/08/06 01:36:52;;;;;;;31.70;28.50;;;;;;;18.87;100.00;97367.37;109749;1251;64072;-82
2023/08/06 01:39:22;;;;;;;33.30;28.80;;;;;;;18.86;100.00;97370.19;109657;1251;58213;-79
2023/08/06 01:41:48;;;;;;;33.30;29.30;;;;;;;18.85;100.00;97375.64;109805;1251;58079;-78
2023/08/06 01:44:16;;;;;;;33.80;30.10;;;;;;;18.85;100.00;97372.39;110050;1251;65306;-79
2023/08/06 01:46:42;;;;;;;35.00;31.50;;;;;;;18.86;100.00;97372.64;110094;1251;58657;-81
2023/08/06 01:49:09;;;;;;;32.30;28.90;;;;;;;18.88;100.00;97376.30;109795;1251;62873;-81
2023/08/06 01:51:35;;;;;;;31.80;28.70;;;;;;;18.88;100.00;97376.77;110097;1251;58122;-79
2023/08/06 01:54:02;;;;;;;32.30;28.90;;;;;;;18.90;100.00;97384.13;110122;1251;57534;-81
2023/08/06 01:56:29;;;;;;;31.30;28.20;;;;;;;18.90;100.00;97385.91;109958;1251;64027;-80
2023/08/06 01:58:55;;;;;;;31.70;28.40;;;;;;;18.91;100.00;97386.17;109890;1251;60228;-82
2023/08/06 02:01:22;;;;;;;31.60;28.50;;;;;;;18.91;100.00;97386.96;109640;1251;64085;-81
2023/08/06 02:03:48;;;;;;;30.80;27.60;;;;;;;18.92;100.00;97376.26;109645;1251;58138;-81
2023/08/06 02:06:15;;;;;;;32.20;28.70;;;;;;;18.93;100.00;97369.16;109450;1251;58384;-81
2023/08/06 02:08:41;;;;;;;32.70;29.30;;;;;;;18.93;100.00;97363.89;109636;1252;66356;-80
2023/08/06 02:11:08;;;;;;;32.30;29.00;;;;;;;18.93;100.00;97357.71;109695;1251;59864;-82
2023/08/06 02:13:34;;;;;;;33.70;30.20;;;;;;;18.94;100.00;97352.61;109667;1251;62842;-82
2023/08/06 02:16:01;;;;;;;32.50;29.00;;;;;;;18.94;100.00;97347.78;109604;1251;58904;-81
2023/08/06 02:18:27;;;;;;;37.10;30.90;;;;;;;18.93;100.00;97354.13;109586;1251;58422;-82
2023/08/06 02:20:58;;;;;;;35.10;31.40;;;;;;;18.94;100.00;97350.52;109639;1251;65251;-83
2023/08/06 02:23:26;;;;;;;36.00;32.10;;;;;;;18.93;100.00;97341.95;109667;1250;59810;-81
2023/08/06 02:26:04;;;;;;;42.50;34.50;;;;;;;18.92;100.00;97334.89;109620;1250;63062;-82
2023/08/06 02:28:31;;;;;;;41.90;34.20;;;;;;;18.92;100.00;97334.20;109541;1251;58198;-82
2023/08/06 02:30:58;;;;;;;45.70;37.70;;;;;;;18.92;100.00;97342.41;109657;1251;58080;-81
2023/08/06 02:33:25;;;;;;;41.20;34.90;;;;;;;18.92;100.00;97336.18;109631;1251;64884;-82
2023/08/06 02:35:59;;;;;;;43.00;34.70;;;;;;;18.93;100.00;97333.81;109645;1251;61311;-82
2023/08/06 02:38:25;;;;;;;45.40;34.10;;;;;;;18.94;100.00;97330.89;109640;1251;63783;-82
2023/08/06 02:40:52;;;;;;;46.60;34.90;;;;;;;18.94;100.00;97323.15;109647;1251;58128;-82
2023/08/06 02:43:18;;;;;;;52.00;36.00;;;;;;;18.92;100.00;97314.67;109672;1251;58201;-82
2023/08/06 02:45:45;;;;;;;59.40;37.90;;;;;;;18.91;100.00;97315.41;109616;1251;66153;-82
2023/08/06 02:48:11;;;;;;;60.00;39.00;;;;;;;18.90;100.00;97314.80;109711;1251;60721;-82
2023/08/06 02:50:39;;;;;;;68.30;38.70;;;;;;;18.90;100.00;97309.63;109624;1251;63737;-81
2023/08/06 02:53:07;;;;;;;68.90;38.20;;;;;;;18.89;100.00;97309.34;109608;1251;58178;-82
2023/08/06 02:55:34;;;;;;;66.50;38.40;;;;;;;18.88;100.00;97310.41;109368;1251;58403;-82
2023/08/06 02:58:01;;;;;;;59.80;38.10;;;;;;;18.88;100.00;97315.26;109463;1251;65235;-82
2023/08/06 03:00:28;;;;;;;65.50;39.00;;;;;;;18.89;100.00;97316.23;109643;1251;58987;-82
2023/08/06 03:02:55;;;;;;;67.10;37.80;;;;;;;18.89;100.00;97314.77;109444;1251;62528;-82
2023/08/06 03:05:21;;;;;;;63.00;36.20;;;;;;;18.88;100.00;97316.27;109598;1251;58120;-81
2023/08/06 03:07:48;;;;;;;74.40;37.00;;;;;;;18.89;100.00;97308.67;109654;1251;58071;-82
2023/08/06 03:10:14;;;;;;;66.50;32.50;;;;;;;18.88;100.00;97299.91;109615;1251;65341;-80
2023/08/06 03:12:41;;;;;;;55.30;32.20;;;;;;;18.86;100.00;97304.66;109667;1251;58661;-82
2023/08/06 03:15:08;;;;;;;59.20;32.50;;;;;;;18.86;100.00;97303.70;109432;1251;63074;-82
2023/08/06 03:17:35;;;;;;;57.40;31.50;;;;;;;18.89;100.00;97301.98;109545;1251;58287;-82
2023/08/06 03:20:01;;;;;;;54.70;32.10;;;;;;;18.91;100.00;97303.57;109622;1251;58264;-82
2023/08/06 03:22:28;;;;;;;71.30;32.60;;;;;;;18.91;100.00;97302.54;109464;1251;63805;-81
2023/08/06 03:24:54;;;;;;;64.30;33.30;;;;;;;18.93;100.00;97301.27;109661;1251;60148;-81
2023/08/06 03:27:21;;;;;;;58.00;33.00;;;;;;;18.95;100.00;97299.45;109619;1251;65188;-82
2023/08/06 03:29:51;;;;;;;62.40;33.90;;;;;;;18.95;100.00;97301.02;109664;1251;58289;-82
2023/08/06 03:32:17;;;;;;;59.00;33.00;;;;;;;18.96;100.00;97298.05;109683;1251;59044;-82
2023/08/06 03:34:44;;;;;;;67.60;33.20;;;;;;;18.96;100.00;97296.89;109628;1251;65208;-82
2023/08/06 03:37:11;;;;;;;64.10;30.60;;;;;;;18.96;100.00;97294.72;109676;1251;58723;-80
2023/08/06 03:39:38;;;;;;;55.70;32.00;;;;;;;18.95;100.00;97298.48;109622;1251;64069;-82
2023/08/06 03:42:05;;;;;;;51.20;30.50;;;;;;;18.93;100.00;97295.89;109620;1251;58103;-82
2023/08/06 03:44:31;;;;;;;49.40;28.10;;;;;;;18.93;100.00;97289.62;109620;1251;58098;-83
2023/08/06 03:46:58;;;;;;;49.30;28.90;;;;;;;18.92;100.00;97286.73;109613;1251;64047;-82
2023/08/06 03:49:24;;;;;;;46.70;28.60;;;;;;;18.90;100.00;97284.91;109657;1250;60106;-82
2023/08/06 03:51:51;;;;;;;53.00;31.00;;;;;;;18.89;100.00;97281.30;109455;1251;65221;-81
2023/08/06 03:54:17;;;;;;;49.30;29.20;;;;;;;18.87;100.00;97282.77;109651;1251;58104;-82
2023/08/06 03:56:44;;;;;;;52.90;30.50;;;;;;;18.85;100.00;97277.21;109628;1251;58151;-81
2023/08/06 03:59:10;;;;;;;52.70;30.00;;;;;;;18.85;100.00;97269.11;109605;1251;65276;-82
2023/08/06 04:01:37;;;;;;;52.70;30.40;;;;;;;18.85;100.00;97265.61;109691;1251;58968;-81
2023/08/06 04:04:03;;;;;;;50.60;28.20;;;;;;;18.84;100.00;97269.80;109778;1251;62886;-80
2023/08/06 04:06:30;;;;;;;48.40;28.50;;;;;;;18.83;100.00;97266.73;109765;1251;58205;-82
2023/08/06 04:08:56;;;;;;;36.20;23.70;;;;;;;18.81;100.00;97263.89;109675;1251;58184;-82
2023/08/06 04:11:23;;;;;;;41.50;24.10;;;;;;;18.79;100.00;97262.42;109656;1250;65211;-83
2023/08/06 04:13:50;;;;;;;33.90;22.50;;;;;;;18.76;100.00;97259.20;109591;1251;59049;-82
2023/08/06 04:16:16;;;;;;;32.70;21.60;;;;;;;18.74;100.00;97254.59;109645;1251;65193;-82
2023/08/06 04:18:43;;;;;;;33.50;22.50;;;;;;;18.72;100.00;97247.98;109553;1251;58211;-82
2023/08/06 04:21:09;;;;;;;32.60;21.30;;;;;;;18.72;100.00;97241.16;109613;1251;58060;-83
2023/08/06 04:23:36;;;;;;;26.50;19.10;;;;;;;18.70;100.00;97239.70;109630;1251;65333;-82
2023/08/06 04:26:02;;;;;;;23.40;18.40;;;;;;;18.68;100.00;97236.08;109691;1251;59830;-83
2023/08/06 04:28:30;;;;;;;21.90;18.00;;;;;;;18.66;100.00;97235.98;109596;1251;64051;-81
2023/08/06 04:30:56;;;;;;;21.70;16.10;;;;;;;18.64;100.00;97233.61;109623;1251;58238;-81
2023/08/06 04:33:23;;;;;;;21.50;16.00;;;;;;;18.63;100.00;97236.63;109641;1251;58155;-83
2023/08/06 04:35:55;;;;;;;21.80;15.30;;;;;;;18.62;100.00;97234.96;109687;1251;65411;-82
2023/08/06 04:38:25;;;;;;;18.60;14.60;;;;;;;18.62;100.00;97231.75;109586;1251;58654;-80
2023/08/06 04:40:52;;;;;;;25.30;15.00;;;;;;;18.61;100.00;97228.64;109566;1251;64077;-82
2023/08/06 04:43:18;;;;;;;20.40;13.90;;;;;;;18.59;100.00;97228.05;109598;1251;58136;-82
2023/08/06 04:45:49;;;;;;;18.70;11.90;;;;;;;18.60;100.00;97226.14;109630;1251;58079;-82
2023/08/06 04:48:16;;;;;;;20.50;12.30;;;;;;;18.55;100.00;97224.78;109607;1251;66361;-81
2023/08/06 04:50:44;;;;;;;16.10;11.70;;;;;;;18.49;100.00;97226.60;109624;1251;58876;-81
2023/08/06 04:53:11;;;;;;;16.20;12.10;;;;;;;18.46;100.00;97230.67;109592;1251;65212;-82
2023/08/06 04:55:38;;;;;;;12.00;9.90;;;;;;;18.41;100.00;97235.51;109563;1251;58231;-82
2023/08/06 04:58:04;;;;;;;10.30;9.20;;;;;;;18.39;100.00;97219.55;109718;1251;58254;-83
2023/08/06 05:00:31;;;;;;;10.70;8.10;;;;;;;18.37;100.00;97212.23;109679;1251;66235;-81
2023/08/06 05:03:00;;;;;;;8.50;7.20;;;;;;;18.37;100.00;97205.27;109578;1251;59998;-81
2023/08/06 05:05:28;;;;;;;5.70;4.70;;;;;;;18.37;100.00;97200.98;109563;1251;63735;-82
2023/08/06 05:07:56;;;;;;;5.30;4.80;;;;;;;18.36;100.00;97194.30;109613;1251;58195;-81
2023/08/06 05:10:27;;;;;;;5.10;4.30;;;;;;;18.35;100.00;97192.02;109527;1251;58108;-82
2023/08/06 05:12:54;;;;;;;4.10;3.30;;;;;;;18.36;100.00;97189.25;109504;1251;64482;-82
2023/08/06 05:15:21;;;;;;;3.60;3.20;;;;;;;18.36;100.00;97188.33;109641;1251;60330;-81
2023/08/06 05:17:48;;;;;;;3.40;3.00;;;;;;;18.36;100.00;97191.23;109577;1251;65316;-80
2023/08/06 05:20:14;;;;;;;3.50;2.80;;;;;;;18.36;100.00;97194.11;109608;1251;58178;-83
2023/08/06 05:22:41;;;;;;;3.90;2.70;;;;;;;18.34;100.00;97188.85;109590;1251;58102;-81
2023/08/06 05:25:08;;;;;;;5.80;2.80;;;;;;;18.30;100.00;97185.66;109616;1251;65055;-81
2023/08/06 05:27:35;;;;;;;3.60;2.70;;;;;;;18.28;100.00;97177.31;109464;1251;60065;-81
2023/08/06 05:30:03;;;;;;;2.20;1.90;;;;;;;18.30;100.00;97167.59;109566;1251;63782;-81
2023/08/06 05:32:30;;;;;;;2.00;1.70;;;;;;;18.29;100.00;97163.34;109597;1251;58961;-82
2023/08/06 05:34:56;;;;;;;2.30;1.90;;;;;;;18.28;100.00;97163.30;109633;1251;58858;-80
2023/08/06 05:37:23;;;;;;;5.40;1.80;;;;;;;18.27;100.00;97163.27;109534;1251;66943;-81
2023/08/06 05:39:49;;;;;;;1.80;1.50;;;;;;;18.28;100.00;97169.81;109634;1251;58997;-81
2023/08/06 05:42:16;;;;;;;2.10;1.40;;;;;;;18.25;100.00;97177.34;109635;1251;64928;-81
2023/08/06 05:44:43;;;;;;;5.20;1.60;;;;;;;18.24;100.00;97176.86;109569;1251;58981;-80
2023/08/06 05:47:09;;;;;;;3.10;1.90;;;;;;;18.20;100.00;97164.73;109686;1251;59273;-81
2023/08/06 05:49:36;;;;;;;3.60;2.20;;;;;;;18.19;100.00;97161.44;109453;1251;66013;-81
2023/08/06 05:52:06;;;;;;;2.20;1.30;;;;;;;18.15;100.00;97165.65;109617;1251;61266;-80
2023/08/06 05:54:32;;;;;;;1.20;0.80;;;;;;;18.13;100.00;97171.19;109631;1251;65046;-80
2023/08/06 05:56:59;;;;;;;1.20;1.00;;;;;;;18.11;100.00;97173.45;109591;1251;58952;-81
2023/08/06 05:59:26;;;;;;;2.20;0.70;;;;;;;18.11;100.00;97159.39;109626;1252;58959;-81
2023/08/06 06:01:53;;;;;;;0.70;0.70;;;;;;;18.12;100.00;97153.02;109644;1251;64735;-82
2023/08/06 06:04:19;;;;;;;3.30;0.70;;;;;;;18.09;100.00;97149.75;109638;1251;61003;-81
2023/08/06 06:06:46;;;;;;;1.20;0.80;;;;;;;18.06;100.00;97139.33;109672;1251;62845;-81
2023/08/06 06:09:13;;;;;;;1.40;0.60;;;;;;;18.06;100.00;97137.39;109370;1251;59022;-79
2023/08/06 06:11:39;;;;;;;2.30;0.60;;;;;;;18.03;100.00;97141.55;109662;1251;58853;-79
2023/08/06 06:14:06;;;;;;;1.60;0.80;;;;;;;18.00;100.00;97149.23;109650;1251;67115;-80
2023/08/06 06:16:34;;;;;;;1.00;0.70;;;;;;;17.97;100.00;97144.36;109600;1251;67675;-79
2023/08/06 06:19:00;;;;;;;3.00;0.70;;;;;;;17.99;100.00;97132.67;109658;1251;64158;-80
2023/08/06 06:21:27;;;;;;;3.80;0.80;;;;;;;17.96;100.00;97113.05;109607;1251;58967;-80
2023/08/06 06:23:54;;;;;;;1.50;0.70;;;;;;;17.95;100.00;97107.85;109699;1251;59035;-79
2023/08/06 06:26:20;;;;;;;3.00;0.60;;;;;;;17.89;100.00;97111.15;109666;1251;67149;-79
2023/08/06 06:28:47;;;;;;;2.50;0.40;;;;;;;17.85;100.00;97123.94;109653;1250;60176;-79
2023/08/06 06:31:14;;;;;;;1.90;0.50;;;;;;;17.78;100.00;97132.08;109449;1251;64112;-79
2023/08/06 06:33:40;;;;;;;1.80;0.60;;;;;;;17.73;100.00;97139.18;109623;1251;59033;-78
2023/08/06 06:36:07;;;;;;;1.50;0.50;;;;;;;17.71;100.00;97142.73;109608;1255;58853;-78
2023/08/06 06:38:34;;;;;;;1.50;0.40;;;;;;;17.67;100.00;97132.71;109569;1251;64715;-79
2023/08/06 06:41:03;;;;;;;2.90;0.80;;;;;;;17.64;100.00;97117.14;109546;1251;59052;-79
2023/08/06 06:43:29;;;;;;;2.60;1.70;;;;;;;17.64;100.00;97105.83;109604;1251;71231;-79
2023/08/06 06:46:00;;;;;;;0.50;0.50;;;;;;;17.62;100.00;97100.00;109426;1257;59065;-79
2023/08/06 06:48:32;;;;;;;0.70;0.40;;;;;;;17.58;100.00;97097.40;109673;1251;58851;-79
2023/08/06 06:50:59;;;;;;;0.70;0.20;;;;;;;17.55;100.00;97102.50;109629;1251;64859;-79
2023/08/06 06:53:28;;;;;;;1.40;0.40;;;;;;;17.53;100.00;97114.20;109632;1251;60232;-79
2023/08/06 06:55:56;;;;;;;0.80;0.30;;;;;;;17.51;100.00;97129.58;109560;1251;62689;-79
2023/08/06 06:58:22;;;;;;;1.30;0.50;;;;;;;17.45;100.00;97149.18;109645;1251;58884;-79
2023/08/06 07:00:49;;;;;;;1.40;0.40;;;;;;;17.39;100.00;97169.00;109465;1257;59087;-79
2023/08/06 07:03:15;;;;;;;1.10;0.30;;;;;;;17.33;100.00;97178.31;109602;1251;66028;-79
2023/08/06 07:05:44;;;;;;;4.20;0.60;;;;;;;17.26;100.00;97171.64;109624;1251;59021;-78
2023/08/06 07:08:11;;;;;;;2.80;0.80;;;;;;;17.16;100.00;97165.27;109616;1251;65364;-78
2023/08/06 07:10:38;;;;;;;1.80;0.50;;;;;;;17.10;100.00;97164.63;109373;1251;59105;-78
2023/08/06 07:13:04;;;;;;;1.00;0.40;;;;;;;17.02;100.00;97148.34;109578;1251;59090;-78
2023/08/06 07:15:31;;;;;;;2.60;0.60;;;;;;;16.96;100.00;97145.90;109617;1251;65910;-78
2023/08/06 07:17:58;;;;;;;0.70;0.20;;;;;;;16.92;100.00;97145.36;109620;1251;60603;-78
2023/08/06 07:20:25;;;;;;;0.30;0.30;;;;;;;16.85;100.00;97147.23;109596;1251;64060;-77
2023/08/06 07:22:51;;;;;;;0.90;0.30;;;;;;;16.79;100.00;97130.91;109627;1251;58956;-77
2023/08/06 07:25:18;;;;;;;2.00;0.40;;;;;;;16.73;100.00;97122.83;109650;1251;58910;-77
2023/08/06 07:27:45;;;;;;;0.30;0.30;;;;;;;16.65;100.00;97120.21;109601;1251;66954;-78
2023/08/06 07:30:12;;;;;;;1.30;0.20;;;;;;;16.61;100.00;97138.27;109575;1251;59988;-78
2023/08/06 07:32:38;;;;;;;0.60;0.30;;;;;;;16.61;100.00;97153.95;109633;1251;62933;-78
2023/08/06 07:35:05;;;;;;;0.60;0.20;;;;;;;16.56;100.00;97173.33;109580;1251;59001;-79
2023/08/06 07:37:32;;;;;;;1.10;0.20;;;;;;;16.53;100.00;97184.45;109677;1251;58891;-78
2023/08/06 07:39:58;;;;;;;0.20;0.20;;;;;;;16.54;100.00;97183.52;109639;1251;66111;-79
2023/08/06 07:42:25;;;;;;;0.50;0.20;;;;;;;16.52;100.00;97159.50;109637;1255;60357;-78
2023/08/06 07:44:54;;;;;;;1.90;0.60;;;;;;;16.46;100.00;97127.18;109625;1251;62770;-78
2023/08/06 07:47:21;;;;;;;1.00;0.90;;;;;;;16.46;100.00;97120.89;109616;1251;58939;-79
2023/08/06 07:49:48;;;;;;;1.30;0.60;;;;;;;16.49;100.00;97127.80;109682;1251;58946;-78
2023/08/06 07:52:14;;;;;;;1.50;0.50;;;;;;;16.53;100.00;97136.92;109632;1250;66089;-79
2023/08/06 07:54:41;;;;;;;0.60;0.40;;;;;;;16.61;100.00;97149.33;109489;1251;59511;-79
2023/08/06 07:57:08;;;;;;;0.30;0.20;;;;;;;16.73;100.00;97153.73;109623;1251;64079;-78
2023/08/06 07:59:34;;;;;;;2.20;0.40;;;;;;;16.82;100.00;97155.09;109583;1251;58966;-79
2023/08/06 08:02:01;;;;;;;0.30;0.30;;;;;;;16.91;100.00;97155.28;109639;1254;58970;-79
2023/08/06 08:04:28;;;;;;;1.30;0.50;;;;;;;16.97;100.00;97150.80;109630;1251;66127;-79
2023/08/06 08:06:54;;;;;;;0.60;0.50;;;;;;;17.02;100.00;97148.94;109646;1251;66790;-80
2023/08/06 08:09:21;;;;;;;1.60;0.30;;;;;;;17.03;100.00;97158.48;109625;1251;62830;-80
2023/08/06 08:11:47;;;;;;;0.70;0.20;;;;;;;17.00;100.00;97163.51;109610;1251;59298;-79
2023/08/06 08:14:14;;;;;;;0.30;0.20;;;;;;;17.00;100.00;97152.45;109651;1251;59010;-80
2023/08/06 08:16:40;;;;;;;0.20;0.20;;;;;;;17.04;100.00;97136.19;109642;1251;66127;-78
2023/08/06 08:19:07;;;;;;;0.30;0.30;;;;;;;17.06;100.00;97132.75;109652;1251;60067;-82
2023/08/06 08:21:33;;;;;;;1.70;0.30;;;;;;;17.10;100.00;97133.58;109285;1251;64154;-82
2023/08/06 08:24:01;;;;;;;0.30;0.30;;;;;;;17.18;100.00;97140.20;109488;1252;59033;-83
2023/08/06 08:26:27;;;;;;;0.90;0.50;;;;;;;17.25;100.00;97146.98;109483;1251;59053;-84
2023/08/06 08:28:54;;;;;;;1.10;0.60;;;;;;;17.30;100.00;97149.95;109598;1251;66058;-81
2023/08/06 08:31:21;;;;;;;0.30;0.20;;;;;;;17.37;100.00;97160.20;109605;1251;60107;-84
2023/08/06 08:33:48;;;;;;;0.50;0.20;;;;;;;17.42;100.00;97163.73;109430;1251;62598;-78
2023/08/06 08:36:14;;;;;;;0.80;0.60;;;;;;;17.45;100.00;97160.80;109459;1251;58962;-84
2023/08/06 08:38:41;;;;;;;0.20;0.20;;;;;;;17.43;100.00;97157.25;109546;1251;59044;-85
2023/08/06 08:41:10;;;;;;;0.50;0.20;;;;;;;17.42;100.00;97155.21;109511;1254;66847;-84
2023/08/06 08:43:37;;;;;;;0.60;0.40;;;;;;;17.41;100.00;97155.03;109491;1252;60410;-83
2023/08/06 08:46:05;;;;;;;0.30;0.30;;;;;;;17.38;100.00;97149.81;109440;1254;62506;-81
2023/08/06 08:48:32;;;;;;;0.40;0.30;;;;;;;17.34;100.00;97146.05;109471;1252;58956;-82
2023/08/06 08:50:58;;;;;;;0.50;0.40;;;;;;;17.31;100.00;97144.81;109454;1251;58994;-81
2023/08/06 08:53:26;;;;;;;0.70;0.40;;;;;;;17.28;100.00;97152.45;109519;1251;66595;-80
2023/08/06 08:55:54;;;;;;;2.10;0.40;;;;;;;17.24;100.00;97157.16;109438;1253;59041;-76
2023/08/06 08:58:21;;;;;;;0.30;0.30;;;;;;;17.16;100.00;97158.65;109453;1252;64107;-80
2023/08/06 09:00:50;;;;;;;0.70;0.60;;;;;;;17.08;100.00;97152.17;109497;1251;58985;-85
2023/08/06 09:03:17;;;;;;;0.80;0.50;;;;;;;17.02;100.00;97145.65;109533;1253;59063;-69
2023/08/06 09:05:51;;;;;;;0.90;0.50;;;;;;;16.99;100.00;97140.85;109534;1253;65840;-77
2023/08/06 09:08:20;;;;;;;0.90;0.50;;;;;;;16.97;100.00;97133.23;109519;1254;60233;-79
2023/08/06 09:10:49;;;;;;;1.80;0.50;;;;;;;16.96;100.00;97127.58;109500;1254;64849;-79
2023/08/06 09:13:16;;;;;;;1.60;0.40;;;;;;;16.99;100.00;97133.31;109445;1252;59031;-78
2023/08/06 09:15:44;;;;;;;1.30;0.40;;;;;;;17.02;100.00;97131.65;109508;1253;58956;-77
2023/08/06 09:18:11;;;;;;;3.70;1.00;;;;;;;17.04;100.00;97139.74;109465;1252;66011;-80
2023/08/06 09:20:39;;;;;;;0.80;0.40;;;;;;;17.04;100.00;97147.58;109299;1257;59150;-79
2023/08/06 09:23:10;;;;;;;0.30;0.20;;;;;;;17.08;100.00;97152.51;109481;1253;64844;-81
2023/08/06 09:25:43;;;;;;;0.80;0.30;;;;;;;17.12;100.00;97150.20;109461;1252;59668;-86
2023/08/06 09:28:09;;;;;;;1.00;0.70;;;;;;;17.15;100.00;97142.11;109452;1252;59048;-84
2023/08/06 09:30:37;;;;;;;1.90;0.50;;;;;;;17.19;100.00;97141.25;109496;1254;67091;-80
2023/08/06 09:33:11;;;;;;;1.00;0.70;;;;;;;17.23;100.00;97146.34;109476;1253;59241;-79
2023/08/06 09:35:38;;;;;;;0.50;0.40;;;;;;;17.27;100.00;97147.92;109501;1254;71739;-78
2023/08/06 09:38:10;;;;;;;0.30;0.30;;;;;;;17.25;100.00;97148.20;109521;1253;58979;-80
2023/08/06 09:40:38;;;;;;;0.80;0.40;;;;;;;17.26;100.00;97150.65;109529;1253;59007;-77
2023/08/06 09:43:06;;;;;;;0.20;0.20;;;;;;;17.24;100.00;97154.68;109466;1254;64690;-78
2023/08/06 09:45:37;;;;;;;0.30;0.30;;;;;;;17.23;100.00;97151.86;109496;1252;59044;-75
2023/08/06 09:48:06;;;;;;;0.40;0.30;;;;;;;17.20;100.00;97154.42;109477;1253;62672;-81
2023/08/06 09:50:37;;;;;;;0.40;0.40;;;;;;;17.12;100.00;97157.61;109518;1254;60720;-80
2023/08/06 09:53:08;;;;;;;1.30;0.50;;;;;;;17.10;100.00;97155.07;109492;1253;58865;-78
2023/08/06 09:55:35;;;;;;;0.60;0.30;;;;;;;17.16;100.00;97150.61;109550;1252;65885;-79
2023/08/06 09:58:02;;;;;;;0.40;0.40;;;;;;;17.19;100.00;97157.27;109481;1251;59230;-81
2023/08/06 10:00:30;;;;;;;2.00;0.50;;;;;;;17.18;100.00;97161.02;109495;1253;62793;-83
2023/08/06 10:03:00;;;;;;;0.60;0.50;;;;;;;17.14;100.00;97167.33;109478;1253;58956;-77
2023/08/06 10:05:27;;;;;;;1.10;0.40;;;;;;;17.11;100.00;97176.33;109466;1252;59423;-80
2023/08/06 10:07:55;;;;;;;0.40;0.40;;;;;;;17.10;100.00;97180.81;109499;1252;65854;-80
2023/08/06 10:10:22;;;;;;;0.20;0.20;;;;;;;17.10;100.00;97185.58;109498;1252;59073;-80
2023/08/06 10:12:52;;;;;;;0.30;0.30;;;;;;;17.12;100.00;97192.52;109489;1253;64716;-81
2023/08/06 10:15:26;;;;;;;1.40;0.30;;;;;;;17.12;100.00;97194.02;109504;1251;58957;-76
2023/08/06 10:17:57;;;;;;;0.40;0.30;;;;;;;17.09;100.00;97189.80;109600;1251;59012;-75
2023/08/06 10:20:24;;;;;;;0.30;0.30;;;;;;;17.12;100.00;97182.21;109553;1251;64808;-78
2023/08/06 10:23:05;;;;;;;0.20;0.20;;;;;;;17.18;100.00;97173.66;109637;1251;59275;-75
2023/08/06 10:25:40;;;;;;;1.20;0.50;;;;;;;17.23;100.00;97176.05;109591;1251;62601;-77
2023/08/06 10:28:13;;;;;;;1.60;0.50;;;;;;;17.25;100.00;97178.73;109546;1251;58994;-76
2023/08/06 10:30:44;;;;;;;0.30;0.30;;;;;;;17.31;100.00;97175.27;109571;1251;59105;-83
2023/08/06 10:33:11;;;;;;;0.60;0.60;;;;;;;17.34;100.00;97173.59;109541;1251;65814;-75
2023/08/06 10:35:40;;;;;;;1.20;0.50;;;;;;;17.34;100.00;97175.04;109590;1251;60143;-75
2023/08/06 10:38:26;;;;;;;1.30;0.40;;;;;;;17.31;100.00;97175.67;109561;1251;63950;-75
2023/08/06 10:40:52;;;;;;;0.80;0.30;;;;;;;17.38;100.00;97179.11;109613;1251;59008;-84
2023/08/06 10:43:25;;;;;;;0.90;0.50;;;;;;;17.49;100.00;97185.85;109579;1251;59049;-78
2023/08/06 10:45:52;;;;;;;0.70;0.40;;;;;;;17.59;100.00;97188.70;109622;1251;66095;-77
2023/08/06 10:48:41;;;;;;;0.30;0.30;;;;;;;17.65;100.00;97196.02;109549;1250;60201;-84
2023/08/06 10:51:12;;;;;;;0.40;0.40;;;;;;;17.69;100.00;97197.80;109620;1251;64117;-82
2023/08/06 10:53:44;;;;;;;0.60;0.40;;;;;;;17.71;100.00;97196.52;109553;1251;58949;-80
2023/08/06 10:56:22;;;;;;;1.50;0.70;;;;;;;17.68;100.00;97199.98;109616;1251;59046;-75
2023/08/06 10:58:50;;;;;;;0.50;0.50;;;;;;;17.66;100.00;97201.66;109565;1251;66113;-80
2023/08/06 11:01:17;;;;;;;1.00;0.60;;;;;;;17.62;100.00;97202.33;109591;1251;59836;-80
2023/08/06 11:03:46;;;;;;;0.90;0.40;;;;;;;17.56;100.00;97203.82;109550;1251;64046;-78
2023/08/06 11:06:20;;;;;;;0.30;0.30;;;;;;;17.47;100.00;97204.06;109584;1251;59237;-75
2023/08/06 11:08:49;;;;;;;0.40;0.20;;;;;;;17.32;100.00;97209.15;109561;1251;59017;-75
2023/08/06 11:11:17;;;;;;;0.70;0.40;;;;;;;17.19;100.00;97212.11;109593;1251;66109;-77
2023/08/06 11:13:47;;;;;;;0.30;0.30;;;;;;;17.12;100.00;97212.07;109444;1251;59853;-75